LRI4LW LFPG-HECA
Flight info
| Callsign | LRI4LW |
|---|---|
| Flight time | N/A |
| Altitude | 39000 |
| Route | BUBLI DCT LUVAL DCT SHARA DCT DEVDI DCT RIPUS DCT RESIA DCT IXONA DCT SAL DCT UVODI DCT AMUGO DCT VAKSU DCT KOFER DCT PINDO DCT PIKOS DCT KEA UN132 KUPIS DCT LAPSO UN132 KUMBI L612 BLT |
| Aircraft | B77L/H-SDE1E2E3FGHIJ2J3J4J5M1RWXY/LB1D1 |
Departure
| Time | 2026-05-05 06:29 |
|---|---|
| Airport | Charles de Gaulle International Airport (LFPG) |
Arrival
| Time | N/A |
|---|---|
| Airport | Cairo International Airport (HECA) |
| Time | Latitude | Longitude | Altitude | Speed | Heading |
|---|---|---|---|---|---|
| 2026-05-05 06:27 | 48.99584 | 2.55559 | 356 ft | 0 kts | 86° |
| 2026-05-05 06:28 | 48.99587 | 2.55638 | 362 ft | 29 kts | 86° |
| 2026-05-05 06:28 | 48.99658 | 2.56900 | 365 ft | 147 kts | 85° |
| 2026-05-05 06:28 | 48.99718 | 2.58098 | 493 ft | 179 kts | 84° |
| 2026-05-05 06:29 | 48.99799 | 2.60026 | 1382 ft | 184 kts | 83° |
| 2026-05-05 06:29 | 48.99910 | 2.61987 | 2350 ft | 185 kts | 84° |
| 2026-05-05 06:29 | 49.00021 | 2.63953 | 3079 ft | 191 kts | 84° |
| 2026-05-05 06:29 | 49.00133 | 2.65995 | 3819 ft | 198 kts | 84° |
| 2026-05-05 06:30 | 49.00256 | 2.68245 | 4112 ft | 230 kts | 84° |
| 2026-05-05 06:30 | 49.00393 | 2.70805 | 4655 ft | 250 kts | 84° |
| 2026-05-05 06:30 | 49.00533 | 2.73482 | 5538 ft | 257 kts | 84° |
| 2026-05-05 06:30 | 49.00674 | 2.76226 | 6487 ft | 261 kts | 84° |
| 2026-05-05 06:31 | 49.00708 | 2.79001 | 7344 ft | 266 kts | 95° |
| 2026-05-05 06:31 | 49.00425 | 2.81817 | 8214 ft | 272 kts | 99° |
| 2026-05-05 06:31 | 49.00076 | 2.84668 | 9168 ft | 275 kts | 99° |
| 2026-05-05 06:31 | 48.99740 | 2.87558 | 10056 ft | 279 kts | 98° |
| 2026-05-05 06:32 | 48.99411 | 2.90551 | 10621 ft | 298 kts | 98° |
| 2026-05-05 06:32 | 48.99061 | 2.93823 | 10845 ft | 328 kts | 98° |
| 2026-05-05 06:32 | 48.98642 | 2.97379 | 11038 ft | 353 kts | 104° |
| 2026-05-05 06:32 | 48.97720 | 3.00950 | 11659 ft | 369 kts | 114° |
| 2026-05-05 06:33 | 48.96595 | 3.04506 | 12633 ft | 376 kts | 115° |
| 2026-05-05 06:33 | 48.95464 | 3.08067 | 13706 ft | 381 kts | 115° |
| 2026-05-05 06:33 | 48.94314 | 3.11734 | 14688 ft | 385 kts | 115° |
| 2026-05-05 06:33 | 48.93165 | 3.15453 | 15659 ft | 390 kts | 115° |